Time;durP1;ratioP1;P1;durP2;ratioP2;P2;SDS_P1;SDS_P2;PMS_P1;PMS_P2;Temp;Humidity;BMP_temperature;BMP_pressure;BME280_temperature;BME280_humidity;BME280_pressure;Samples;Min_cycle;Max_cycle;Signal;HPM_P1;HPM_P2
2023/09/22 00:00:43;;;;;;;1.30;0.60;;;13.30;99.90;;;;;;5023943;28;20878;-61
2023/09/22 00:03:10;;;;;;;1.67;0.70;;;13.30;99.90;;;;;;5030217;28;20929;-61
2023/09/22 00:05:36;;;;;;;2.70;0.90;;;13.30;99.90;;;;;;5017305;28;21643;-61
2023/09/22 00:08:03;;;;;;;2.43;0.93;;;13.30;99.90;;;;;;5028960;28;20417;-62
2023/09/22 00:10:29;;;;;;;2.40;0.60;;;13.20;99.90;;;;;;5026951;28;20439;-61
2023/09/22 00:12:55;;;;;;;1.30;0.50;;;13.20;99.90;;;;;;5029197;28;20508;-61
2023/09/22 00:15:24;;;;;;;1.47;0.57;;;13.20;99.90;;;;;;5019562;28;20712;-61
2023/09/22 00:17:49;;;;;;;3.40;1.27;;;13.20;99.90;;;;;;5029678;28;20290;-62
2023/09/22 00:20:15;;;;;;;1.20;0.53;;;13.20;99.90;;;;;;5025386;28;20526;-62
2023/09/22 00:22:43;;;;;;;2.47;0.70;;;13.20;99.90;;;;;;5030278;28;20189;-61
2023/09/22 00:25:09;;;;;;;1.30;0.60;;;13.20;99.90;;;;;;5022985;28;20456;-62
2023/09/22 00:27:35;;;;;;;1.60;0.90;;;13.20;99.90;;;;;;5029254;28;20819;-61
2023/09/22 00:30:02;;;;;;;1.87;0.70;;;13.10;99.90;;;;;;5020629;28;20512;-61
2023/09/22 00:32:28;;;;;;;1.80;0.83;;;13.50;99.90;;;;;;5022238;28;20433;-61
2023/09/22 00:34:54;;;;;;;1.80;0.60;;;13.10;99.90;;;;;;5021466;28;20440;-61
2023/09/22 00:37:20;;;;;;;2.67;0.80;;;13.30;99.90;;;;;;5020825;28;20615;-61
2023/09/22 00:39:46;;;;;;;1.40;0.70;;;13.10;99.90;;;;;;5020607;28;20805;-61
2023/09/22 00:42:11;;;;;;;1.30;0.53;;;13.10;99.90;;;;;;5022169;28;20440;-61
2023/09/22 00:44:37;;;;;;;1.93;0.87;;;13.00;99.90;;;;;;5023112;28;20265;-61
2023/09/22 00:47:05;;;;;;;1.67;0.83;;;13.00;99.90;;;;;;5021069;28;20182;-61
2023/09/22 00:49:31;;;;;;;1.10;0.50;;;13.00;99.90;;;;;;5024433;28;20234;-61
2023/09/22 00:51:58;;;;;;;1.20;0.53;;;12.90;99.90;;;;;;5021839;28;20904;-61
2023/09/22 00:54:24;;;;;;;3.13;0.90;;;12.90;99.90;;;;;;5025371;28;20470;-62
2023/09/22 00:56:51;;;;;;;1.50;0.60;;;13.00;99.90;;;;;;5010387;28;20768;-61
2023/09/22 00:59:18;;;;;;;1.27;0.53;;;12.90;99.90;;;;;;5021620;28;20442;-62
2023/09/22 01:01:44;;;;;;;1.43;0.60;;;12.90;99.90;;;;;;5024521;28;20890;-62
2023/09/22 01:04:11;;;;;;;2.80;0.80;;;12.90;99.90;;;;;;5025741;28;20520;-62
2023/09/22 01:06:38;;;;;;;3.30;1.00;;;13.00;99.90;;;;;;5019052;28;20190;-62
2023/09/22 01:09:05;;;;;;;5.37;0.60;;;13.00;99.90;;;;;;5028023;28;20517;-62
2023/09/22 01:11:34;;;;;;;1.40;0.77;;;13.00;99.90;;;;;;5026246;28;20440;-62
2023/09/22 01:14:00;;;;;;;1.80;0.77;;;13.00;99.90;;;;;;5027841;28;20455;-62
2023/09/22 01:16:27;;;;;;;1.60;0.70;;;13.00;99.90;;;;;;5020327;28;20535;-62
2023/09/22 01:18:53;;;;;;;1.60;0.83;;;13.00;99.90;;;;;;5036483;28;20470;-62
2023/09/22 01:21:19;;;;;;;1.97;0.77;;;13.00;99.90;;;;;;5020049;28;20543;-62
2023/09/22 01:23:44;;;;;;;1.90;0.90;;;13.00;99.90;;;;;;5030841;28;20190;-62
2023/09/22 01:26:10;;;;;;;3.30;0.93;;;13.10;99.90;;;;;;5013614;28;20425;-62
2023/09/22 01:28:36;;;;;;;1.20;0.57;;;13.00;99.90;;;;;;5028030;28;20202;-62
2023/09/22 01:31:03;;;;;;;1.40;0.50;;;13.20;99.90;;;;;;5014488;28;20511;-62
2023/09/22 01:33:28;;;;;;;4.20;0.80;;;13.00;99.90;;;;;;5027620;28;20742;-62
2023/09/22 01:35:54;;;;;;;1.20;0.60;;;13.00;99.90;;;;;;5020550;28;20433;-62
2023/09/22 01:38:24;;;;;;;1.40;0.60;;;13.00;99.90;;;;;;5027053;28;20607;-62
2023/09/22 01:40:50;;;;;;;1.40;0.67;;;12.90;99.90;;;;;;5018176;28;20182;-62
2023/09/22 01:43:17;;;;;;;2.57;1.23;;;13.40;99.90;;;;;;5015051;28;20425;-62
2023/09/22 01:45:43;;;;;;;1.50;0.70;;;12.90;99.90;;;;;;5020779;28;20428;-62
2023/09/22 01:48:09;;;;;;;1.60;0.60;;;12.80;99.90;;;;;;5025909;28;20439;-62
2023/09/22 01:50:41;;;;;;;1.90;0.80;;;12.80;99.90;;;;;;5020359;28;20452;-62
2023/09/22 01:53:12;;;;;;;1.30;0.70;;;12.80;99.90;;;;;;5025963;28;20443;-62
2023/09/22 01:55:38;;;;;;;3.43;0.90;;;12.80;99.90;;;;;;5020932;28;20453;-62
2023/09/22 01:58:04;;;;;;;3.63;0.80;;;12.80;99.90;;;;;;5024709;28;20540;-62
2023/09/22 02:00:37;;;;;;;1.23;0.70;;;12.80;99.90;;;;;;5022509;28;20463;-62
2023/09/22 02:03:03;;;;;;;5.00;1.27;;;12.70;99.90;;;;;;5027005;28;20453;-63
2023/09/22 02:05:29;;;;;;;2.17;0.50;;;12.80;99.90;;;;;;5016547;28;20765;-62
2023/09/22 02:07:55;;;;;;;9.20;1.17;;;12.70;99.90;;;;;;5026113;28;20451;-62
2023/09/22 02:10:21;;;;;;;1.20;0.50;;;12.70;99.90;;;;;;5025735;28;20955;-63
2023/09/22 02:12:47;;;;;;;1.27;0.67;;;12.70;99.90;;;;;;5027504;28;20429;-63
2023/09/22 02:15:13;;;;;;;3.40;0.90;;;12.80;99.90;;;;;;5019274;28;20241;-62
2023/09/22 02:17:43;;;;;;;1.40;0.70;;;13.80;99.90;;;;;;5026624;28;20203;-62
2023/09/22 02:20:22;;;;;;;4.30;1.07;;;13.10;99.90;;;;;;5021288;28;20925;-62
2023/09/22 02:22:49;;;;;;;2.70;1.17;;;12.70;99.90;;;;;;5029102;28;20433;-63
2023/09/22 02:25:16;;;;;;;1.70;0.70;;;12.80;99.90;;;;;;5022777;28;20430;-63
2023/09/22 02:27:43;;;;;;;1.63;0.70;;;12.80;99.90;;;;;;5032045;28;20428;-63
2023/09/22 02:30:10;;;;;;;3.33;0.80;;;12.80;99.90;;;;;;5024635;28;20488;-63
2023/09/22 02:32:36;;;;;;;1.50;0.60;;;12.80;99.90;;;;;;5022034;28;20521;-63
2023/09/22 02:35:01;;;;;;;1.93;0.83;;;12.80;99.90;;;;;;5018762;28;20509;-63
2023/09/22 02:37:29;;;;;;;1.67;0.80;;;12.80;99.90;;;;;;5022207;28;20579;-63
2023/09/22 02:39:54;;;;;;;1.20;0.50;;;12.80;99.90;;;;;;5019993;28;20194;-63
2023/09/22 02:42:20;;;;;;;2.53;0.80;;;12.90;99.90;;;;;;5022042;28;20429;-63
2023/09/22 02:44:45;;;;;;;1.40;0.60;;;12.80;99.90;;;;;;5015430;28;20758;-63
2023/09/22 02:47:11;;;;;;;2.03;0.70;;;12.80;99.90;;;;;;5020754;28;20290;-63
2023/09/22 02:49:37;;;;;;;2.23;1.23;;;12.80;99.90;;;;;;5024958;28;20183;-63
2023/09/22 02:52:03;;;;;;;1.53;0.70;;;12.90;99.90;;;;;;5025382;28;20190;-63
2023/09/22 02:54:29;;;;;;;1.20;0.60;;;12.90;99.90;;;;;;5023954;28;20180;-63
2023/09/22 02:56:55;;;;;;;1.63;0.77;;;12.90;99.90;;;;;;5022037;28;20221;-63
2023/09/22 02:59:22;;;;;;;1.20;0.50;;;13.00;99.90;;;;;;5024708;28;20442;-63
2023/09/22 03:01:48;;;;;;;1.90;0.70;;;13.00;99.90;;;;;;5026173;28;20467;-63
2023/09/22 03:04:13;;;;;;;1.93;0.83;;;12.90;99.90;;;;;;5028694;28;20429;-63
2023/09/22 03:06:39;;;;;;;5.03;0.90;;;13.00;99.90;;;;;;5021510;28;20174;-63
2023/09/22 03:09:09;;;;;;;5.60;0.93;;;13.00;99.90;;;;;;5030904;28;20246;-63
2023/09/22 03:11:38;;;;;;;1.70;1.00;;;13.00;99.90;;;;;;5029356;28;20538;-63
2023/09/22 03:14:04;;;;;;;1.20;0.60;;;13.00;99.90;;;;;;5030843;28;20903;-63
2023/09/22 03:16:30;;;;;;;2.00;0.90;;;13.10;99.90;;;;;;5024219;28;20421;-63
2023/09/22 03:18:56;;;;;;;2.63;1.07;;;13.00;99.90;;;;;;5031253;28;20468;-63
2023/09/22 03:21:23;;;;;;;2.67;0.90;;;13.00;99.90;;;;;;5025462;28;20426;-63
2023/09/22 03:23:50;;;;;;;1.30;0.70;;;13.00;99.90;;;;;;5033607;28;20183;-63
2023/09/22 03:26:16;;;;;;;1.93;0.80;;;12.90;99.90;;;;;;5015156;28;20422;-63
2023/09/22 03:28:42;;;;;;;1.50;0.77;;;12.90;99.90;;;;;;5031042;28;20464;-63
2023/09/22 03:31:07;;;;;;;1.17;0.50;;;13.80;99.90;;;;;;5016554;28;20902;-63
2023/09/22 03:33:33;;;;;;;1.57;0.80;;;13.00;99.90;;;;;;5031176;28;20186;-63
2023/09/22 03:35:59;;;;;;;1.10;0.47;;;13.00;99.90;;;;;;5022235;28;20574;-63
2023/09/22 03:38:25;;;;;;;2.43;1.27;;;13.00;99.90;;;;;;5030262;28;20214;-63
2023/09/22 03:40:54;;;;;;;3.13;0.90;;;12.50;99.90;;;;;;5020113;28;20555;-64
2023/09/22 03:43:19;;;;;;;3.93;1.17;;;13.00;99.90;;;;;;5029499;28;20413;-64
2023/09/22 03:45:45;;;;;;;1.10;0.50;;;13.00;99.90;;;;;;5022942;28;20925;-64
2023/09/22 03:48:11;;;;;;;1.20;0.50;;;13.10;99.90;;;;;;5028707;28;20186;-64
2023/09/22 03:50:36;;;;;;;3.53;0.80;;;13.00;99.90;;;;;;5023355;28;20190;-64
2023/09/22 03:53:02;;;;;;;2.57;0.97;;;13.10;99.90;;;;;;5028067;28;20649;-64
2023/09/22 03:55:28;;;;;;;2.27;0.80;;;13.10;99.90;;;;;;5025466;28;20187;-64
2023/09/22 03:57:53;;;;;;;1.30;0.80;;;13.40;99.90;;;;;;5026416;28;20200;-64
2023/09/22 04:00:24;;;;;;;7.10;0.80;;;13.00;99.90;;;;;;5026139;28;20273;-64
2023/09/22 04:02:50;;;;;;;1.20;0.50;;;13.00;99.90;;;;;;5028115;28;20615;-64
2023/09/22 04:05:16;;;;;;;1.63;0.80;;;13.00;99.90;;;;;;5019798;28;20438;-64
2023/09/22 04:07:41;;;;;;;2.80;1.03;;;13.00;99.90;;;;;;5027492;28;20186;-64
2023/09/22 04:10:08;;;;;;;2.27;0.80;;;13.00;99.90;;;;;;5023849;28;20265;-64
2023/09/22 04:12:35;;;;;;;1.83;0.80;;;12.90;99.90;;;;;;5027653;28;20673;-64
2023/09/22 04:15:05;;;;;;;3.20;0.73;;;13.00;99.90;;;;;;5022959;28;20430;-64
2023/09/22 04:17:32;;;;;;;1.40;0.70;;;13.00;99.90;;;;;;5027312;28;20468;-64
2023/09/22 04:19:58;;;;;;;1.20;0.50;;;12.90;99.90;;;;;;5024434;28;20540;-64
2023/09/22 04:22:24;;;;;;;1.50;0.60;;;13.00;99.90;;;;;;5028108;28;20930;-64
2023/09/22 04:24:51;;;;;;;1.97;0.93;;;13.00;99.90;;;;;;5018621;28;20659;-64
2023/09/22 04:27:16;;;;;;;1.30;0.73;;;13.00;99.90;;;;;;5020573;28;20482;-64
2023/09/22 04:29:42;;;;;;;2.37;0.80;;;13.00;99.90;;;;;;5022910;28;20495;-64
2023/09/22 04:32:08;;;;;;;2.60;0.80;;;13.20;99.90;;;;;;5019423;28;20257;-64
2023/09/22 04:34:35;;;;;;;2.47;0.87;;;12.80;99.90;;;;;;5027759;28;20602;-64
2023/09/22 04:37:03;;;;;;;2.13;1.03;;;12.80;99.90;;;;;;5018589;28;20202;-64
2023/09/22 04:39:31;;;;;;;1.70;0.80;;;12.80;99.90;;;;;;5026307;28;20459;-64
2023/09/22 04:41:57;;;;;;;2.00;0.93;;;12.80;99.90;;;;;;5020446;28;20430;-64
2023/09/22 04:44:23;;;;;;;1.90;0.60;;;13.20;99.90;;;;;;5025286;28;20430;-64
2023/09/22 04:46:49;;;;;;;1.70;0.67;;;12.90;99.90;;;;;;5020106;28;20823;-64
2023/09/22 04:49:14;;;;;;;1.40;0.60;;;12.90;99.90;;;;;;5023208;28;20198;-64
2023/09/22 04:51:40;;;;;;;4.37;1.00;;;12.80;99.90;;;;;;5019540;28;20190;-64
2023/09/22 04:54:06;;;;;;;1.70;0.73;;;12.80;99.90;;;;;;5021490;28;20190;-64
2023/09/22 04:56:32;;;;;;;3.73;0.70;;;12.80;99.90;;;;;;5021429;28;20198;-64
2023/09/22 04:58:57;;;;;;;2.47;0.97;;;12.90;99.90;;;;;;5028245;28;20594;-64
2023/09/22 05:01:25;;;;;;;1.97;0.67;;;12.80;99.90;;;;;;5028020;28;20254;-64
2023/09/22 05:03:50;;;;;;;1.30;0.57;;;12.90;99.90;;;;;;5029463;28;20171;-64
2023/09/22 05:06:16;;;;;;;3.67;0.87;;;12.90;99.90;;;;;;5013963;28;20521;-64
2023/09/22 05:08:42;;;;;;;1.40;0.70;;;12.80;99.90;;;;;;5029402;28;21003;-64
2023/09/22 05:11:08;;;;;;;1.80;1.00;;;12.80;99.90;;;;;;5029688;28;20182;-65
2023/09/22 05:13:35;;;;;;;1.53;0.70;;;13.00;99.90;;;;;;5029048;28;20912;-64
2023/09/22 05:16:09;;;;;;;1.53;0.70;;;12.80;99.90;;;;;;5020753;28;20206;-64
2023/09/22 05:18:35;;;;;;;1.40;0.60;;;12.80;99.90;;;;;;5028853;28;21063;-64
2023/09/22 05:21:01;;;;;;;1.50;0.67;;;12.90;99.90;;;;;;5029519;28;20417;-64
2023/09/22 05:23:29;;;;;;;2.60;0.60;;;12.90;99.90;;;;;;5031634;28;20470;-64
2023/09/22 05:25:54;;;;;;;1.87;0.87;;;13.30;99.90;;;;;;5014427;28;20445;-64
2023/09/22 05:28:20;;;;;;;3.23;0.80;;;13.00;99.90;;;;;;5027014;28;20483;-64
2023/09/22 05:30:45;;;;;;;1.10;0.50;;;13.00;99.90;;;;;;5014707;28;20280;-64
2023/09/22 05:33:12;;;;;;;2.27;0.73;;;13.00;99.90;;;;;;5026177;28;20194;-64
2023/09/22 05:35:37;;;;;;;1.80;0.97;;;13.00;99.90;;;;;;5021047;28;20216;-64
2023/09/22 05:38:04;;;;;;;9.63;0.90;;;13.10;99.90;;;;;;5024744;28;20810;-64
2023/09/22 05:40:34;;;;;;;3.10;0.90;;;13.10;99.90;;;;;;5022322;28;20174;-65
2023/09/22 05:43:00;;;;;;;1.20;0.60;;;13.10;99.90;;;;;;5024727;28;20800;-65
2023/09/22 05:45:26;;;;;;;2.10;0.70;;;13.10;99.90;;;;;;5019540;28;20487;-65
2023/09/22 05:47:52;;;;;;;1.20;0.50;;;13.10;99.90;;;;;;5023303;28;20791;-65
2023/09/22 05:50:17;;;;;;;1.97;0.70;;;13.10;99.90;;;;;;5021301;28;20475;-64
2023/09/22 05:52:43;;;;;;;1.40;0.53;;;13.10;99.90;;;;;;5023178;28;20179;-64
2023/09/22 05:55:09;;;;;;;1.80;0.80;;;13.20;99.90;;;;;;5023828;28;20209;-64
2023/09/22 05:57:36;;;;;;;1.20;0.60;;;13.30;99.90;;;;;;5030211;28;20241;-64
2023/09/22 06:00:15;;;;;;;1.30;0.60;;;13.20;99.90;;;;;;5024357;28;20448;-64
2023/09/22 06:02:44;;;;;;;1.27;0.60;;;13.20;99.90;;;;;;5025119;28;20269;-64
2023/09/22 06:05:10;;;;;;;1.20;0.60;;;13.20;99.90;;;;;;5018044;28;20914;-64
2023/09/22 06:07:35;;;;;;;1.20;0.60;;;13.20;99.90;;;;;;5023053;28;20567;-64
2023/09/22 06:10:05;;;;;;;2.17;0.90;;;13.20;99.90;;;;;;5025878;28;20182;-64
2023/09/22 06:12:31;;;;;;;2.03;0.80;;;13.10;99.90;;;;;;5027570;28;20704;-64
2023/09/22 06:14:59;;;;;;;2.73;1.10;;;13.30;99.90;;;;;;5022227;28;20488;-64
2023/09/22 06:17:25;;;;;;;1.93;0.80;;;13.30;99.90;;;;;;5015896;28;20604;-64
2023/09/22 06:19:51;;;;;;;1.27;0.67;;;13.20;99.90;;;;;;5027017;28;20493;-64
2023/09/22 06:22:17;;;;;;;1.93;0.70;;;13.30;99.90;;;;;;5025621;28;20507;-64
2023/09/22 06:24:43;;;;;;;3.90;0.60;;;13.20;99.90;;;;;;5022213;28;20519;-64
2023/09/22 06:27:08;;;;;;;1.60;0.70;;;13.30;99.90;;;;;;5029888;28;20702;-64
2023/09/22 06:29:34;;;;;;;1.53;0.73;;;13.30;99.90;;;;;;5023145;28;20243;-64
2023/09/22 06:31:59;;;;;;;2.23;0.83;;;13.30;99.90;;;;;;5019232;28;20182;-64
2023/09/22 06:34:25;;;;;;;1.20;0.53;;;13.30;99.90;;;;;;5027696;28;20182;-64
2023/09/22 06:36:51;;;;;;;1.63;0.80;;;13.30;99.90;;;;;;5020255;28;20202;-64
2023/09/22 06:39:16;;;;;;;2.07;0.70;;;13.40;99.90;;;;;;5031524;28;20301;-64
2023/09/22 06:41:42;;;;;;;9.30;0.90;;;13.40;99.90;;;;;;5027690;28;20544;-64
2023/09/22 06:44:08;;;;;;;1.30;0.63;;;13.40;99.90;;;;;;5028648;28;20205;-64
2023/09/22 06:46:35;;;;;;;1.87;0.80;;;13.40;99.90;;;;;;5026559;28;20186;-65
2023/09/22 06:49:03;;;;;;;1.50;0.70;;;13.50;99.90;;;;;;5030980;28;20225;-64
2023/09/22 06:51:31;;;;;;;3.80;0.97;;;13.50;99.90;;;;;;5025681;28;20909;-64
2023/09/22 06:53:57;;;;;;;3.30;0.90;;;13.50;99.90;;;;;;5031901;28;20434;-64
2023/09/22 06:56:22;;;;;;;2.07;0.80;;;13.40;99.90;;;;;;5024555;28;20484;-64
2023/09/22 06:58:49;;;;;;;1.40;0.70;;;13.50;99.90;;;;;;5029371;28;20252;-64
2023/09/22 07:01:16;;;;;;;1.50;0.77;;;13.40;99.90;;;;;;5026191;28;20178;-64
2023/09/22 07:03:43;;;;;;;1.50;0.60;;;13.30;99.90;;;;;;5030858;28;20436;-64
2023/09/22 07:06:14;;;;;;;2.33;0.60;;;13.30;99.90;;;;;;5026371;28;20453;-64
2023/09/22 07:08:41;;;;;;;1.20;0.50;;;13.40;99.90;;;;;;5030799;28;20444;-64
2023/09/22 07:11:08;;;;;;;1.50;0.80;;;13.40;99.90;;;;;;5026945;28;20434;-64
2023/09/22 07:13:35;;;;;;;2.03;0.90;;;13.40;99.90;;;;;;5030572;28;20430;-64
2023/09/22 07:16:01;;;;;;;3.20;1.00;;;13.40;99.90;;;;;;5022140;28;20524;-64
2023/09/22 07:18:27;;;;;;;3.00;0.70;;;13.40;99.90;;;;;;5031734;28;20939;-64
2023/09/22 07:20:54;;;;;;;3.10;0.80;;;13.40;99.90;;;;;;5020634;28;20437;-64
2023/09/22 07:23:20;;;;;;;1.87;0.80;;;13.50;99.90;;;;;;5036442;28;20190;-64
2023/09/22 07:26:08;;;;;;;1.30;0.57;;;13.60;99.90;;;;;;5034121;28;20435;-64
2023/09/22 07:28:34;;;;;;;1.50;0.70;;;13.60;99.90;;;;;;5033916;28;20442;-64
2023/09/22 07:31:11;;;;;;;1.20;0.50;;;13.60;99.90;;;;;;5021429;28;20443;-64
2023/09/22 07:33:36;;;;;;;1.53;0.97;;;13.70;99.90;;;;;;5029237;28;20486;-64
2023/09/22 07:36:02;;;;;;;1.50;0.60;;;13.60;99.90;;;;;;5023744;28;20446;-64
2023/09/22 07:38:29;;;;;;;8.30;0.70;;;13.60;99.90;;;;;;5027695;28;20642;-64
2023/09/22 07:40:55;;;;;;;1.30;0.70;;;13.70;99.90;;;;;;5021487;28;20206;-64
2023/09/22 07:43:21;;;;;;;1.80;0.80;;;13.80;99.90;;;;;;5034005;28;21121;-64
2023/09/22 07:45:48;;;;;;;3.10;0.70;;;13.80;99.90;;;;;;5026326;28;20413;-64
2023/09/22 07:48:14;;;;;;;2.70;0.50;;;13.70;99.90;;;;;;5030754;28;20429;-64
2023/09/22 07:50:40;;;;;;;7.10;0.97;;;13.70;99.90;;;;;;5023038;28;20532;-63
2023/09/22 07:53:05;;;;;;;1.17;0.53;;;13.60;99.90;;;;;;5033766;28;20194;-64
2023/09/22 07:55:31;;;;;;;1.63;0.70;;;13.70;99.90;;;;;;5027768;28;20193;-64
2023/09/22 07:57:57;;;;;;;1.13;0.50;;;13.80;99.90;;;;;;5031764;28;20205;-64
2023/09/22 08:00:26;;;;;;;1.60;0.77;;;13.80;99.90;;;;;;5025006;28;20539;-65
2023/09/22 08:02:52;;;;;;;2.17;0.60;;;13.80;99.90;;;;;;5025877;28;20525;-65
2023/09/22 08:05:18;;;;;;;1.57;0.70;;;13.80;99.90;;;;;;5024275;28;20942;-65
2023/09/22 08:07:45;;;;;;;1.57;0.73;;;13.90;99.90;;;;;;5025794;28;20940;-64
2023/09/22 08:10:11;;;;;;;1.20;0.57;;;14.00;99.90;;;;;;5025662;28;20417;-64
2023/09/22 08:12:38;;;;;;;2.60;0.80;;;14.10;99.90;;;;;;5027927;28;20471;-63
2023/09/22 08:15:05;;;;;;;1.30;0.70;;;14.20;99.90;;;;;;5023808;28;20445;-64
2023/09/22 08:17:31;;;;;;;1.40;0.60;;;14.40;99.90;;;;;;5030151;28;20460;-63
2023/09/22 08:19:56;;;;;;;9.10;1.07;;;14.60;99.90;;;;;;5029621;28;20440;-63
2023/09/22 08:22:22;;;;;;;1.20;0.50;;;14.70;99.90;;;;;;5026694;28;20191;-64
2023/09/22 08:24:48;;;;;;;1.40;0.70;;;14.80;99.90;;;;;;5024972;28;20613;-64
2023/09/22 08:27:14;;;;;;;1.30;0.60;;;14.80;99.90;;;;;;5034682;28;20178;-63
2023/09/22 08:29:39;;;;;;;1.77;0.87;;;15.00;99.90;;;;;;5024913;28;20551;-63
2023/09/22 08:32:05;;;;;;;1.20;0.50;;;15.00;99.90;;;;;;5024592;28;20227;-64
2023/09/22 08:34:38;;;;;;;2.03;0.80;;;15.10;99.90;;;;;;5028691;28;20191;-64
2023/09/22 08:37:04;;;;;;;1.40;0.63;;;15.20;99.90;;;;;;5023324;28;20221;-63
2023/09/22 08:39:30;;;;;;;1.20;0.60;;;15.20;99.90;;;;;;5023890;28;20939;-64
2023/09/22 08:41:58;;;;;;;1.40;0.50;;;15.20;99.90;;;;;;5018192;28;20183;-63
2023/09/22 08:44:28;;;;;;;1.53;0.83;;;15.30;99.90;;;;;;5023563;28;20426;-64
2023/09/22 08:46:54;;;;;;;2.07;0.70;;;15.30;99.90;;;;;;5017957;28;20428;-64
2023/09/22 08:49:23;;;;;;;1.20;0.50;;;15.30;99.90;;;;;;5035674;28;20441;-64
2023/09/22 08:51:49;;;;;;;1.40;0.60;;;15.20;99.90;;;;;;5027136;28;20221;-63
2023/09/22 08:54:15;;;;;;;1.50;0.60;;;15.20;99.90;;;;;;5031562;28;20465;-63
2023/09/22 08:56:41;;;;;;;1.60;0.70;;;15.10;99.90;;;;;;5026045;28;20491;-63
2023/09/22 08:59:10;;;;;;;3.00;0.90;;;15.00;99.90;;;;;;5025317;28;20472;-63
2023/09/22 09:01:36;;;;;;;2.60;1.00;;;15.00;99.90;;;;;;5028299;28;20556;-63
2023/09/22 09:04:34;;;;;;;1.97;0.97;;;15.10;99.90;;;;;;5027017;28;20421;-63
2023/09/22 09:07:02;;;;;;;1.60;0.90;;;15.20;99.90;;;;;;5024024;28;20212;-63
2023/09/22 09:09:48;;;;;;;1.30;0.63;;;15.20;99.90;;;;;;5023916;28;20444;-64
2023/09/22 09:12:14;;;;;;;1.30;0.60;;;15.30;99.90;;;;;;5026966;28;20504;-63
2023/09/22 09:14:46;;;;;;;1.77;0.50;;;15.40;99.90;;;;;;5027436;28;20427;-63
2023/09/22 09:17:20;;;;;;;1.30;0.60;;;15.50;99.90;;;;;;5027680;28;20428;-63
2023/09/22 09:19:53;;;;;;;1.40;0.70;;;15.60;99.90;;;;;;5019067;28;20933;-63
2023/09/22 09:22:19;;;;;;;1.30;0.50;;;15.60;99.90;;;;;;5029398;28;20429;-63
2023/09/22 09:24:45;;;;;;;1.47;0.70;;;15.60;99.90;;;;;;5034267;28;20436;-64
2023/09/22 09:27:18;;;;;;;2.60;0.80;;;15.60;99.90;;;;;;5026130;28;20178;-63
2023/09/22 09:29:47;;;;;;;1.57;0.63;;;15.60;99.90;;;;;;5026195;28;20429;-63
2023/09/22 09:32:23;;;;;;;1.30;0.60;;;15.70;99.90;;;;;;5025028;28;20475;-63
2023/09/22 09:34:49;;;;;;;1.30;0.60;;;15.80;99.90;;;;;;5026550;28;20413;-63
2023/09/22 09:37:14;;;;;;;1.30;0.70;;;15.90;99.90;;;;;;5030346;28;20799;-63
2023/09/22 09:39:49;;;;;;;1.30;0.50;;;16.20;99.90;;;;;;5024489;28;20211;-64
2023/09/22 09:42:18;;;;;;;1.30;0.50;;;16.30;99.90;;;;;;5021283;28;20197;-63
2023/09/22 09:44:50;;;;;;;1.20;0.50;;;16.70;99.90;;;;;;5028051;28;20418;-64
2023/09/22 09:47:25;;;;;;;1.50;0.60;;;17.00;99.90;;;;;;5020240;28;20414;-64
2023/09/22 09:49:53;;;;;;;1.97;0.87;;;17.30;99.90;;;;;;5019729;28;20436;-63
2023/09/22 09:52:26;;;;;;;1.40;0.70;;;17.30;99.90;;;;;;5025410;28;20523;-64
2023/09/22 09:55:03;;;;;;;1.33;0.63;;;17.20;99.90;;;;;;5017480;28;20849;-63
2023/09/22 09:57:31;;;;;;;1.63;0.60;;;17.20;99.90;;;;;;5021680;28;20436;-63
2023/09/22 09:59:57;;;;;;;1.20;0.40;;;17.30;99.90;;;;;;5020632;28;20459;-63
2023/09/22 10:02:24;;;;;;;1.40;0.60;;;17.30;99.90;;;;;;5027581;28;20417;-63
2023/09/22 10:04:50;;;;;;;1.37;0.60;;;17.20;99.90;;;;;;5022037;28;20444;-63
2023/09/22 10:07:16;;;;;;;1.20;0.50;;;17.20;99.90;;;;;;5020789;28;20747;-63
2023/09/22 10:09:42;;;;;;;1.57;0.57;;;16.80;99.90;;;;;;5028529;28;20268;-63
2023/09/22 10:12:08;;;;;;;1.80;0.70;;;17.00;99.90;;;;;;5029482;28;20186;-63
2023/09/22 10:14:51;;;;;;;1.30;0.67;;;17.00;99.90;;;;;;5028294;28;20440;-63
2023/09/22 10:17:24;;;;;;;1.20;0.50;;;17.10;99.90;;;;;;5029292;28;20421;-64
2023/09/22 10:19:50;;;;;;;1.70;0.57;;;17.10;99.90;;;;;;5017516;28;20426;-63
2023/09/22 10:22:16;;;;;;;1.20;0.50;;;17.20;99.90;;;;;;5033524;28;20482;-63
2023/09/22 10:24:42;;;;;;;1.20;0.50;;;17.20;99.90;;;;;;5024572;28;20274;-63
2023/09/22 10:27:13;;;;;;;1.77;0.70;;;17.40;99.90;;;;;;5025208;28;20190;-63
2023/09/22 10:29:51;;;;;;;2.37;0.70;;;17.50;99.90;;;;;;5021863;28;20459;-63
2023/09/22 10:32:21;;;;;;;2.37;0.67;;;17.50;99.90;;;;;;5026249;28;20437;-63
2023/09/22 10:34:47;;;;;;;3.63;0.60;;;17.70;99.90;;;;;;5018959;28;20785;-63
2023/09/22 10:37:15;;;;;;;5.97;0.60;;;17.80;99.90;;;;;;5028200;28;20506;-63
2023/09/22 10:40:08;;;;;;;1.30;0.60;;;18.10;99.90;;;;;;5033771;28;20428;-63
2023/09/22 10:42:42;;;;;;;1.40;0.50;;;18.20;99.90;;;;;;5031726;28;20412;-63
2023/09/22 10:45:09;;;;;;;2.03;0.67;;;18.50;99.90;;;;;;5024509;28;20435;-63
2023/09/22 10:47:44;;;;;;;1.70;0.70;;;18.70;99.90;;;;;;5026431;28;20432;-63
2023/09/22 10:50:18;;;;;;;1.30;0.50;;;18.60;99.90;;;;;;5023155;28;20925;-62
2023/09/22 10:53:00;;;;;;;1.50;0.53;;;18.30;99.90;;;;;;5032238;28;20495;-63
2023/09/22 10:55:34;;;;;;;1.30;0.47;;;18.40;99.90;;;;;;5025248;28;20428;-63
2023/09/22 10:58:03;;;;;;;1.60;0.57;;;18.70;99.90;;;;;;5025954;28;20515;-63
2023/09/22 11:00:31;;;;;;;2.47;0.60;;;19.00;99.90;;;;;;5030419;28;20437;-63
2023/09/22 11:03:08;;;;;;;2.33;0.87;;;19.00;99.90;;;;;;5033478;28;20866;-63
2023/09/22 11:05:35;;;;;;;3.30;0.60;;;18.90;99.90;;;;;;5026076;28;20428;-63
2023/09/22 11:08:01;;;;;;;1.20;0.40;;;18.90;99.90;;;;;;5030645;28;20425;-62
2023/09/22 11:10:27;;;;;;;1.90;0.57;;;19.10;99.90;;;;;;5027399;28;20437;-62
2023/09/22 11:12:54;;;;;;;2.37;0.57;;;18.70;99.90;;;;;;5028785;28;20440;-62
2023/09/22 11:15:21;;;;;;;1.97;0.70;;;18.60;99.90;;;;;;5026651;28;20239;-63
2023/09/22 11:17:47;;;;;;;1.20;0.50;;;18.70;99.90;;;;;;5021045;28;20481;-63
2023/09/22 11:20:31;;;;;;;1.50;0.50;;;18.40;99.90;;;;;;5026636;28;20428;-63
2023/09/22 11:22:57;;;;;;;1.60;0.73;;;17.80;99.90;;;;;;5028381;28;20465;-63
2023/09/22 11:25:26;;;;;;;1.30;0.60;;;17.80;99.90;;;;;;5029792;28;20497;-63
2023/09/22 11:27:53;;;;;;;1.20;0.50;;;17.70;99.90;;;;;;5026055;28;20194;-63
2023/09/22 11:30:25;;;;;;;1.40;0.50;;;17.90;99.90;;;;;;5030101;28;20421;-63
2023/09/22 11:32:52;;;;;;;1.70;0.60;;;17.80;99.90;;;;;;5026301;28;20440;-63
2023/09/22 11:35:40;;;;;;;2.13;0.60;;;17.70;99.90;;;;;;5022143;28;20440;-63
2023/09/22 11:38:29;;;;;;;1.90;0.80;;;17.80;99.90;;;;;;5024326;28;20469;-63
2023/09/22 11:41:09;;;;;;;2.00;1.00;;;18.00;99.90;;;;;;5031514;28;20421;-63
2023/09/22 11:43:45;;;;;;;1.77;0.60;;;18.40;99.90;;;;;;5023814;28;20413;-63
2023/09/22 11:46:15;;;;;;;4.30;0.77;;;18.60;99.90;;;;;;5029465;28;21413;-63
2023/09/22 11:49:04;;;;;;;2.33;0.63;;;18.70;99.50;;;;;;5031540;28;20436;-62
2023/09/22 11:51:55;;;;;;;1.40;0.60;;;18.60;99.90;;;;;;5030098;28;20516;-63
2023/09/22 11:54:25;;;;;;;2.60;0.83;;;18.70;99.90;;;;;;5023249;28;20518;-62
2023/09/22 11:56:54;;;;;;;1.47;0.53;;;18.90;99.90;;;;;;5030313;28;20425;-63
2023/09/22 11:59:21;;;;;;;2.13;0.70;;;19.10;99.90;;;;;;5028801;28;20600;-62
2023/09/22 12:01:48;;;;;;;2.70;0.80;;;19.10;99.50;;;;;;5026192;28;20424;-63
2023/09/22 12:04:14;;;;;;;2.60;0.80;;;19.00;99.90;;;;;;5032370;28;20502;-63
2023/09/22 12:06:40;;;;;;;3.30;0.70;;;19.10;99.10;;;;;;5026931;28;20500;-63
2023/09/22 12:09:15;;;;;;;1.67;0.50;;;19.00;98.90;;;;;;5031339;28;20191;-63
2023/09/22 12:11:41;;;;;;;2.50;0.80;;;19.10;99.70;;;;;;5022748;28;20187;-63
2023/09/22 12:14:08;;;;;;;1.90;0.70;;;19.30;99.40;;;;;;5031384;28;20933;-63
2023/09/22 12:16:33;;;;;;;4.03;1.00;;;19.50;98.10;;;;;;5031094;28;21168;-63
2023/09/22 12:18:59;;;;;;;2.70;1.10;;;19.50;99.30;;;;;;5026793;28;20596;-62
2023/09/22 12:21:29;;;;;;;1.80;0.80;;;19.80;98.20;;;;;;5027826;28;20217;-63
2023/09/22 12:23:55;;;;;;;2.90;1.27;;;19.80;98.70;;;;;;5030914;28;20186;-63
2023/09/22 12:26:21;;;;;;;1.50;0.80;;;19.70;99.00;;;;;;5023309;28;21010;-63
2023/09/22 12:28:49;;;;;;;1.50;0.63;;;19.60;97.20;;;;;;5028876;28;20974;-62
2023/09/22 12:31:15;;;;;;;1.80;0.60;;;19.90;97.50;;;;;;5027967;28;20432;-62
2023/09/22 12:33:41;;;;;;;1.33;0.60;;;20.10;97.40;;;;;;5027718;28;20430;-62
2023/09/22 12:36:08;;;;;;;1.40;0.67;;;20.10;97.60;;;;;;5025887;28;20441;-62
2023/09/22 12:38:35;;;;;;;1.30;0.60;;;19.70;97.40;;;;;;5030743;28;20209;-62
2023/09/22 12:41:01;;;;;;;2.17;0.90;;;19.50;97.60;;;;;;5024121;28;20432;-62
2023/09/22 12:43:27;;;;;;;2.63;0.70;;;19.40;97.40;;;;;;5029130;28;20422;-62
2023/09/22 12:45:52;;;;;;;1.40;0.60;;;19.20;96.70;;;;;;5026954;28;20417;-62
2023/09/22 12:48:18;;;;;;;1.50;0.60;;;19.10;97.70;;;;;;5029102;28;20301;-63
2023/09/22 12:50:52;;;;;;;5.60;1.53;;;19.20;98.30;;;;;;5025293;28;20214;-62